Aeroporto :
LOGIN :

Iscrizione | Disclaimer

   EN    FR    IT 

 










Sommario :    VFR   VFR Marginale   IFR   IFR Intensivo   IFR Molto Intensivo
Visibilità : 
Base nubi : 
>= 8 km
>= 3000ft
5 / 8 km
1000 / 3000 ft
1500m / 5 km
500 / 1000 ft
800 / 1500m
200 / 500 ft
< 800m
< 200 ft
Simboli :   Temporali  Nebbia  Neve Forte  Precipitazioni Forti  Vento > 20 kt
SIGMETs :   Varie  Temporali  Ghiacco  Turbolenza  Onda orograficha  Ceneri Vulcaniche







- Altitudine del aeroporto : 1470 ft
- Codice IATA : KLU


LOWK - Klagenfurt

ULTIMO METAR :
  • 182320Z AUTO 30004KT 260V320 9999 FEW110 BKN130 16/14 Q1017

METARs OBSOLETI :
  • 182250Z AUTO 31004KT 9999 BKN120 16/14 Q1017
  • 182220Z AUTO 32004KT 9999 FEW100 OVC140 16/14 Q1018
  • 182150Z AUTO 30004KT 9999 FEW130 BKN140 16/14 Q1017
  • 182120Z AUTO VRB02KT 9999 BKN140 17/14 Q1017 NOSIG
  • 182050Z AUTO 32003KT 280V350 9999 SCT140 BKN190 17/13 Q1017 NOSIG
  • 182020Z AUTO 33003KT 300V360 9999 FEW150 SCT180 17/13 Q1017 NOSIG

TAF AMD TAF LOWK
Valido dal 18 a 18 ore il 19 a 18 ore UTC


181805Z 1818/1918 VRB02KT 9999 FEW060 FEW060CB SCT120 TX27/1914Z TN14/1904Z
PROB30
TEMPO 1818/1819 VRB12KT TSRA SCT040 FEW050CB BKN070
BECMG 1819/1821 CAVOK
BECMG 1904/1906 9999 FEW050 SCT120
TEMPO 1912/1918 FEW060 FEW060CB BKN300
Nessun NOTAM noto per questo aeroporto.



MetMap, La meteo Aeronautica in un colpo d'occhio ! - Copyright ORBIFLY Dicembre 2007 - Disclaimer

ORBIFLY MET'MAP TEAM :

Programmazione e sviluppo : Alexandra Zaïnal
Concezione e sviluppo : Baudouin d'Aumeries
Co-Programmazione e sviluppo : Marc-Olivier Méhu
Supporto tecnico e logistico : Manuel Goepfert
Aiuto per la traduzione : Arnaldo La Scala

Contatto : metmap@orbifly.com




FONTI E CREDITI :

   NOAA